createdAt,value
2022-11-24T00:02:21.598Z,69.35
2022-11-24T00:04:51.909Z,74.10
2022-11-24T00:07:21.811Z,77.14
2022-11-24T00:09:51.658Z,68.78
2022-11-24T00:12:22.069Z,75.05
2022-11-24T00:14:51.981Z,84.17
2022-11-24T00:17:21.798Z,75.62
2022-11-24T00:19:50.320Z,67.83
2022-11-24T00:22:18.594Z,84.93
2022-11-24T00:24:47.211Z,76.76
2022-11-24T00:27:15.461Z,77.33
2022-11-24T00:29:43.856Z,82.27
2022-11-24T00:32:12.308Z,75.62
2022-11-24T00:34:42.092Z,79.80
2022-11-24T00:37:09.067Z,75.81
2022-11-24T00:39:37.426Z,71.25
2022-11-24T00:42:07.958Z,70.30
2022-11-24T00:44:37.341Z,60.99
2022-11-24T00:47:06.477Z,72.58
2022-11-24T00:49:34.121Z,68.97
2022-11-24T00:52:02.525Z,55.29
2022-11-24T00:54:31.407Z,66.12
2022-11-24T00:56:59.335Z,57.19
2022-11-24T00:59:27.779Z,70.68
2022-11-24T01:01:57.598Z,83.22
2022-11-24T01:04:27.373Z,61.94
2022-11-24T01:06:57.231Z,58.14
2022-11-24T01:09:27.012Z,58.90
2022-11-24T01:12:02.659Z,65.74
2022-11-24T01:14:33.444Z,64.98
2022-11-24T05:33:48.480Z,52.06
2022-11-24T05:36:36.906Z,54.53
2022-11-24T05:39:07.920Z,50.35
2022-11-24T05:41:37.767Z,48.64
2022-11-24T05:44:07.725Z,40.09
2022-11-24T05:46:37.743Z,48.64
2022-11-24T05:49:07.614Z,46.93
2022-11-24T05:51:37.535Z,50.16
2022-11-24T05:54:07.290Z,53.96
2022-11-24T05:56:37.130Z,59.28
2022-11-24T05:59:09.931Z,56.62
2022-11-24T06:01:40.131Z,48.83
2022-11-24T06:04:10.026Z,52.06
2022-11-24T06:06:39.894Z,58.52
2022-11-24T06:09:09.842Z,55.29
2022-11-24T06:11:39.568Z,55.10
2022-11-24T06:14:11.523Z,45.98
2022-11-24T06:16:41.202Z,50.54
2022-11-24T06:19:11.648Z,50.73
2022-11-24T06:21:40.872Z,58.14
2022-11-24T06:24:09.074Z,47.31
2022-11-24T06:26:37.632Z,53.77
2022-11-24T06:29:06.682Z,45.79
2022-11-24T06:31:34.935Z,43.51
2022-11-24T06:34:07.580Z,42.37
2022-11-24T06:36:39.228Z,49.21
2022-11-24T06:39:10.547Z,43.89
2022-11-24T06:41:40.588Z,55.67
2022-11-24T06:44:10.476Z,51.11
2022-11-24T06:46:40.603Z,45.79
2022-11-24T06:49:10.572Z,48.45
2022-11-24T06:51:41.137Z,42.56
2022-11-24T06:54:17.583Z,48.26
2022-11-24T06:56:48.102Z,44.27
2022-11-24T06:59:20.535Z,53.01
2022-11-24T07:01:49.770Z,39.52
2022-11-24T07:04:17.863Z,47.50
2022-11-24T07:06:46.654Z,41.04
2022-11-24T07:09:14.843Z,43.13
2022-11-24T07:11:43.429Z,40.66
2022-11-24T07:14:11.642Z,56.05
2022-11-24T07:16:40.618Z,41.23
2022-11-24T07:19:10.305Z,46.17
2022-11-24T07:21:40.244Z,48.45
2022-11-24T07:24:10.153Z,44.46
2022-11-24T07:26:40.329Z,54.91
2022-11-24T07:29:10.138Z,55.48
2022-11-24T07:31:40.247Z,53.39
2022-11-24T07:34:10.199Z,49.40
2022-11-24T07:36:40.186Z,40.09
2022-11-24T07:39:09.958Z,51.11
2022-11-24T07:41:39.776Z,63.65
2022-11-24T07:44:09.656Z,41.61
2022-11-24T07:46:39.498Z,40.09
2022-11-24T07:49:09.574Z,53.96
2022-11-24T07:51:39.430Z,63.46
2022-11-24T07:54:09.807Z,53.58
2022-11-24T07:56:39.741Z,50.92
2022-11-24T07:59:09.468Z,52.25
2022-11-24T08:01:39.366Z,52.06
2022-11-24T08:04:09.222Z,52.25
2022-11-24T08:06:43.293Z,46.93
2022-11-24T08:09:16.772Z,57.95
2022-11-24T08:11:46.568Z,65.93
2022-11-24T08:14:16.318Z,54.91
2022-11-24T08:16:46.170Z,55.29
2022-11-24T08:19:15.851Z,49.97
2022-11-24T08:21:45.797Z,45.03
2022-11-24T08:24:17.012Z,48.64
2022-11-24T08:26:46.848Z,47.12
2022-11-24T08:29:16.780Z,52.82
2022-11-24T08:31:47.020Z,55.67
2022-11-24T08:34:16.871Z,58.33
2022-11-24T08:36:46.595Z,58.33
2022-11-24T08:39:16.480Z,51.68
2022-11-24T08:41:46.816Z,57.57
2022-11-24T08:44:18.286Z,58.71
2022-11-24T08:46:48.433Z,51.49
2022-11-24T08:49:18.940Z,54.53
2022-11-24T08:51:51.189Z,64.22
2022-11-24T08:54:21.725Z,51.11
2022-11-24T08:56:51.337Z,56.24
2022-11-24T08:59:21.233Z,55.48
2022-11-24T09:01:51.207Z,59.28
2022-11-24T09:04:21.127Z,67.83
2022-11-24T09:06:50.994Z,51.49
2022-11-24T09:09:20.842Z,58.33
2022-11-24T09:11:50.600Z,53.01
2022-11-24T09:14:17.771Z,52.82
2022-11-24T09:16:44.854Z,58.90
2022-11-24T09:19:15.150Z,67.26
2022-11-24T09:21:44.934Z,53.01
2022-11-24T09:24:16.617Z,61.18
2022-11-24T09:26:47.786Z,59.66
2022-11-24T09:29:15.841Z,57.95
2022-11-24T09:31:45.807Z,59.66
2022-11-24T09:34:16.773Z,61.18
2022-11-24T09:36:46.073Z,58.52
2022-11-24T09:39:15.978Z,64.60
2022-11-24T09:42:14.420Z,68.59
2022-11-24T09:46:04.452Z,53.20
2022-11-24T09:48:50.428Z,65.36
2022-11-24T09:51:25.666Z,59.66
2022-11-24T09:54:06.039Z,55.10
2022-11-24T09:56:40.627Z,57.19
2022-11-24T09:59:23.527Z,57.19
2022-11-24T10:01:53.171Z,64.22
2022-11-24T10:04:29.662Z,61.56
2022-11-24T10:07:27.819Z,59.85
2022-11-24T10:10:25.937Z,65.17
2022-11-24T10:13:08.192Z,53.96
2022-11-24T10:16:04.165Z,62.70
2022-11-24T10:19:13.046Z,66.88
2022-11-24T10:22:10.405Z,65.55
2022-11-24T10:25:18.001Z,64.03
2022-11-24T10:27:57.301Z,61.75
2022-11-24T10:30:28.142Z,62.32
2022-11-24T10:33:05.989Z,53.58
2022-11-24T10:35:47.487Z,54.53
2022-11-24T10:38:20.209Z,63.46
2022-11-24T10:41:14.473Z,52.06
2022-11-24T10:43:44.501Z,59.09
2022-11-24T10:46:27.049Z,57.38
2022-11-24T10:49:03.075Z,52.82
2022-11-24T10:52:05.705Z,56.43
2022-11-24T10:54:36.175Z,57.00
2022-11-24T10:57:05.944Z,57.38
2022-11-24T10:59:40.280Z,65.17
2022-11-24T11:02:36.111Z,58.71
2022-11-24T11:05:42.516Z,62.13
2022-11-24T11:08:29.283Z,59.28
2022-11-24T11:11:31.002Z,55.48
2022-11-24T11:14:04.956Z,63.65
2022-11-24T11:16:51.830Z,62.70
2022-11-24T11:19:56.904Z,64.03
2022-11-24T11:22:32.019Z,57.76
2022-11-24T11:25:16.200Z,53.96
2022-11-24T11:27:43.935Z,62.32
2022-11-24T11:36:16.850Z,57.38
2022-11-24T11:38:47.017Z,55.67
2022-11-24T11:41:45.171Z,58.14
2022-11-24T11:44:47.047Z,58.14
2022-11-24T11:47:48.004Z,61.18
2022-11-24T11:50:27.504Z,61.56
2022-11-24T11:53:17.923Z,59.85
2022-11-24T11:56:34.925Z,62.70
2022-11-24T11:59:26.533Z,54.72
2022-11-24T12:02:26.951Z,54.72
2022-11-24T12:05:20.406Z,60.23
2022-11-24T12:08:20.479Z,46.55
2022-11-24T12:11:13.830Z,57.57
2022-11-24T12:14:15.765Z,61.18
2022-11-24T12:17:03.189Z,52.06
2022-11-24T12:19:48.395Z,58.14
2022-11-24T12:22:36.367Z,59.66
2022-11-24T12:25:29.383Z,58.14
2022-11-24T12:28:33.490Z,54.34
2022-11-24T12:31:27.969Z,59.09
2022-11-24T12:34:54.513Z,60.80
2022-11-24T12:37:58.780Z,51.87
2022-11-24T12:44:00.914Z,58.90
2022-11-24T12:47:18.234Z,53.20
2022-11-24T12:50:15.852Z,53.20
2022-11-24T12:53:02.969Z,51.11
2022-11-24T12:55:34.131Z,58.14
2022-11-24T12:58:32.703Z,54.15
2022-11-24T13:01:39.305Z,55.10
2022-11-24T13:04:41.061Z,55.10
2022-11-24T13:07:18.477Z,50.54
2022-11-24T13:10:53.624Z,53.01
2022-11-24T13:13:15.892Z,53.01
2022-11-24T13:16:34.769Z,53.77
2022-11-24T13:18:52.508Z,57.19
2022-11-24T13:21:29.423Z,55.67
2022-11-24T13:24:06.421Z,55.29
2022-11-24T13:26:42.078Z,54.72
2022-11-24T13:29:36.359Z,53.01
2022-11-24T13:32:05.943Z,47.12
2022-11-24T13:34:38.863Z,53.20
2022-11-24T13:37:34.649Z,52.25
2022-11-24T13:40:11.557Z,52.63
2022-11-24T13:42:57.327Z,61.56
2022-11-24T13:45:39.220Z,60.23
2022-11-24T13:48:21.494Z,53.20
2022-11-24T13:50:53.269Z,51.68
2022-11-24T13:53:47.569Z,57.76
2022-11-24T13:56:16.599Z,54.72
2022-11-24T13:58:59.639Z,51.11
2022-11-24T14:01:36.019Z,60.80
2022-11-24T14:04:32.011Z,57.76
2022-11-24T14:07:15.368Z,46.55
2022-11-24T14:09:52.839Z,51.30
2022-11-24T14:12:24.747Z,54.72
2022-11-24T14:15:20.695Z,50.73
2022-11-24T14:17:50.592Z,51.11
2022-11-24T14:20:28.191Z,53.39
2022-11-24T14:22:58.096Z,57.00
2022-11-24T14:25:32.766Z,55.29
2022-11-24T14:28:02.850Z,59.09
2022-11-24T14:30:32.608Z,60.61
2022-11-24T14:33:04.140Z,57.00
2022-11-24T14:35:36.463Z,56.24
2022-11-24T14:38:10.938Z,60.80
2022-11-24T14:40:43.814Z,58.71
2022-11-24T14:43:34.596Z,51.68
2022-11-24T14:46:12.209Z,52.82
2022-11-24T14:48:53.241Z,55.86
2022-11-24T14:51:35.774Z,59.66
2022-11-24T14:54:16.653Z,60.23
2022-11-24T14:57:04.089Z,52.82
2022-11-24T14:59:37.994Z,65.93
2022-11-24T15:02:41.299Z,60.61
2022-11-24T15:05:11.206Z,57.95
2022-11-24T15:07:48.844Z,60.80
2022-11-24T15:10:33.909Z,64.60
2022-11-24T15:13:22.637Z,57.00
2022-11-24T15:16:08.163Z,51.11
2022-11-24T15:18:46.984Z,52.63
2022-11-24T15:21:19.516Z,61.94
2022-11-24T15:24:18.124Z,62.13
2022-11-24T15:26:47.887Z,63.46
2022-11-24T15:29:17.659Z,54.15
2022-11-24T15:31:52.418Z,56.05
2022-11-24T15:34:22.775Z,54.72
2022-11-24T15:36:52.460Z,62.70
2022-11-24T15:39:22.221Z,56.81
2022-11-24T15:41:51.978Z,63.46
2022-11-24T15:44:21.758Z,64.22
2022-11-24T15:46:51.597Z,56.43
2022-11-24T15:49:21.817Z,58.90
2022-11-24T15:51:51.647Z,61.37
2022-11-24T15:54:19.901Z,56.81
2022-11-24T15:56:49.264Z,70.68
2022-11-24T15:59:21.155Z,64.98
2022-11-24T16:01:51.363Z,65.74
2022-11-24T16:04:21.071Z,59.85
2022-11-24T16:06:50.775Z,64.98
2022-11-24T16:09:20.590Z,72.39
2022-11-24T16:11:50.402Z,63.08
2022-11-24T16:14:20.230Z,64.79
2022-11-24T16:16:50.422Z,71.06
2022-11-24T16:19:20.224Z,68.97
2022-11-24T16:21:50.370Z,63.65
2022-11-24T16:24:20.081Z,64.98
2022-11-24T16:26:49.841Z,64.60
2022-11-24T16:29:20.904Z,63.27
2022-11-24T16:31:54.120Z,71.63
2022-11-24T16:34:24.044Z,64.79
2022-11-24T16:36:53.814Z,60.04
2022-11-24T16:39:23.484Z,61.56
2022-11-24T16:41:53.153Z,65.17
2022-11-24T16:44:22.993Z,63.08
2022-11-24T16:46:52.767Z,68.21
2022-11-24T16:49:22.883Z,59.47
2022-11-24T16:51:52.563Z,64.60
2022-11-24T16:54:22.529Z,64.60
2022-11-24T16:56:52.592Z,63.65
2022-11-24T16:59:22.509Z,65.93
2022-11-24T17:01:52.413Z,73.91
2022-11-24T17:04:22.275Z,59.85
2022-11-24T17:06:52.307Z,67.45
2022-11-24T17:09:22.137Z,64.03
2022-11-24T17:11:51.942Z,69.54
2022-11-24T17:14:20.356Z,67.07
2022-11-24T17:16:48.735Z,70.11
2022-11-24T17:19:17.148Z,70.49
2022-11-24T17:21:46.308Z,70.87
2022-11-24T17:24:17.441Z,61.94
2022-11-24T17:26:49.111Z,65.36
2022-11-24T17:29:19.676Z,67.83
2022-11-24T17:31:49.179Z,67.64
2022-11-24T17:34:18.993Z,61.37
2022-11-24T17:36:48.694Z,70.49
2022-11-24T17:39:24.592Z,71.82
2022-11-24T17:41:52.911Z,71.82
2022-11-24T17:44:20.136Z,70.49
2022-11-24T17:46:49.954Z,74.29
2022-11-24T17:49:21.094Z,73.15
2022-11-24T17:51:50.582Z,82.27
2022-11-24T17:57:07.257Z,76.38
2022-11-24T17:59:35.917Z,67.45
2022-11-24T18:02:04.426Z,73.34
2022-11-24T18:04:34.755Z,75.81
2022-11-24T18:07:04.226Z,75.62
2022-11-24T18:09:32.677Z,69.16
2022-11-24T18:12:01.177Z,79.23
2022-11-24T18:14:28.388Z,81.89
2022-11-24T18:16:55.699Z,86.64
2022-11-24T18:19:24.216Z,76.00
2022-11-24T18:21:52.513Z,77.33
2022-11-24T18:24:24.065Z,77.71
2022-11-24T18:26:54.421Z,72.01
2022-11-24T18:29:24.163Z,76.57
2022-11-24T18:31:54.283Z,72.77
2022-11-24T18:34:27.082Z,76.19
2022-11-24T18:36:56.942Z,72.58
2022-11-24T18:39:28.297Z,68.78
2022-11-24T18:41:58.001Z,69.92
2022-11-24T18:44:27.766Z,68.59
2022-11-24T18:46:57.715Z,73.91
2022-11-24T18:49:28.004Z,72.39
2022-11-24T18:51:59.405Z,72.01
2022-11-24T18:54:29.244Z,65.17
2022-11-24T18:57:03.104Z,72.77
2022-11-24T18:59:33.371Z,64.60
2022-11-24T19:02:03.241Z,69.16
2022-11-24T19:04:33.446Z,69.54
2022-11-24T19:07:03.414Z,73.34
2022-11-24T19:09:33.147Z,73.72
2022-11-24T19:12:03.196Z,74.48
2022-11-24T19:14:34.157Z,74.29
2022-11-24T19:17:05.101Z,68.97
2022-11-24T19:19:35.970Z,71.63
2022-11-24T19:22:05.753Z,70.30
2022-11-24T19:24:36.015Z,72.20
2022-11-24T19:27:06.015Z,75.81
2022-11-24T19:29:39.093Z,71.44
2022-11-24T19:32:12.782Z,69.73
2022-11-24T19:34:42.545Z,69.16
2022-11-24T19:37:12.268Z,74.10
2022-11-24T19:39:41.997Z,77.33
2022-11-24T19:42:15.255Z,72.39
2022-11-24T19:44:45.004Z,67.64
2022-11-24T19:47:14.749Z,79.23
2022-11-24T19:49:44.545Z,76.95
2022-11-24T19:52:14.269Z,71.63
2022-11-24T19:54:44.193Z,69.35
2022-11-24T19:57:14.019Z,73.53
2022-11-24T19:59:45.716Z,95.57
2022-11-24T20:02:15.548Z,118.18
2022-11-24T20:04:45.436Z,111.72
2022-11-24T20:07:15.163Z,91.20
2022-11-24T20:09:45.164Z,75.05
2022-11-24T20:12:16.411Z,64.22
2022-11-24T20:14:46.165Z,67.45
2022-11-24T20:17:15.889Z,63.08
2022-11-24T20:19:44.396Z,67.26
2022-11-24T20:22:12.692Z,62.70
2022-11-24T20:24:41.304Z,57.19
2022-11-24T20:27:09.580Z,61.75
2022-11-24T20:29:45.260Z,57.00
2022-11-24T20:32:19.566Z,58.71
2022-11-24T20:34:49.471Z,58.90
2022-11-24T20:37:19.200Z,54.15
2022-11-24T20:39:50.662Z,56.43
2022-11-24T20:42:21.336Z,58.71
2022-11-24T20:44:51.008Z,65.74
2022-11-24T20:47:20.801Z,61.37
2022-11-24T20:49:50.670Z,56.81
2022-11-24T20:52:20.412Z,53.58
2022-11-24T20:54:50.097Z,54.15
2022-11-24T20:57:19.762Z,58.52
2022-11-24T20:59:50.458Z,55.48
2022-11-24T21:02:21.200Z,50.73
2022-11-24T21:04:50.841Z,54.34
2022-11-24T21:07:20.543Z,45.60
2022-11-24T21:09:50.350Z,47.31
2022-11-24T21:12:20.331Z,47.88
2022-11-24T21:14:50.068Z,48.64
2022-11-24T21:17:19.834Z,45.79
2022-11-24T21:19:49.608Z,52.25
2022-11-24T21:22:19.323Z,54.72
2022-11-24T21:24:49.110Z,50.73
2022-11-24T21:27:18.832Z,50.16
2022-11-24T21:29:48.548Z,50.73
2022-11-24T21:32:18.284Z,58.33
2022-11-24T21:34:48.084Z,53.39
2022-11-24T21:37:16.572Z,52.82
2022-11-24T21:39:45.698Z,55.10
2022-11-24T21:42:15.322Z,57.00
2022-11-24T21:44:44.994Z,52.06
2022-11-24T21:47:12.163Z,59.85
2022-11-24T21:49:39.357Z,55.10
2022-11-24T21:52:08.025Z,59.09
2022-11-24T21:54:36.667Z,62.32
2022-11-24T21:57:05.107Z,59.28
2022-11-24T21:59:33.388Z,64.79
2022-11-24T22:02:01.773Z,59.28
2022-11-24T22:04:30.395Z,49.59
2022-11-24T22:06:58.738Z,43.13
2022-11-24T22:09:27.185Z,49.40
2022-11-24T22:11:55.647Z,49.40
2022-11-24T22:14:23.904Z,51.30
2022-11-24T22:16:52.292Z,48.26
2022-11-24T22:19:20.874Z,55.10
2022-11-24T22:21:49.693Z,53.58
2022-11-24T22:24:18.425Z,54.53
2022-11-24T22:26:50.538Z,55.67
2022-11-24T22:29:20.670Z,55.67
2022-11-24T22:31:50.606Z,60.61
2022-11-24T22:34:20.650Z,58.52
2022-11-24T22:36:50.346Z,67.64
2022-11-24T22:39:20.042Z,60.80
2022-11-24T22:41:49.846Z,59.47
2022-11-24T22:44:23.724Z,56.43
2022-11-24T22:46:52.856Z,63.27
2022-11-24T22:49:23.618Z,58.90
2022-11-24T22:51:53.556Z,61.56
2022-11-24T22:54:23.295Z,62.89
2022-11-24T22:56:53.286Z,55.48
2022-11-24T22:59:23.029Z,56.24
2022-11-24T23:01:52.932Z,56.81
2022-11-24T23:04:23.171Z,59.09
2022-11-24T23:06:52.990Z,53.58
2022-11-24T23:09:22.756Z,58.90
2022-11-24T23:11:52.483Z,60.04
2022-11-24T23:14:22.295Z,53.96
2022-11-24T23:16:49.288Z,56.05
2022-11-24T23:19:16.587Z,59.66
2022-11-24T23:21:46.362Z,63.46
2022-11-24T23:24:16.497Z,70.49
2022-11-24T23:26:46.323Z,70.68
2022-11-24T23:29:16.308Z,70.11
2022-11-24T23:31:46.227Z,57.76
2022-11-24T23:34:16.139Z,59.85
2022-11-24T23:36:46.133Z,58.71
2022-11-24T23:39:16.358Z,63.46
2022-11-24T23:41:45.644Z,61.56
2022-11-24T23:44:15.684Z,54.53
2022-11-24T23:46:45.459Z,63.08
2022-11-24T23:49:18.571Z,65.36
2022-11-24T23:51:45.707Z,61.94
2022-11-24T23:54:38.329Z,57.95
2022-11-24T23:57:08.149Z,60.99
2022-11-24T23:59:34.886Z,63.08
